LFOH

Le Havre Octeville Airport

Airport
ICAO code
LFOH
IATA Code
LEH
Summary
ICAO Region
EUR
ICAO Territory
Location

, Haute-Normandie

Serving
Le Havre
Elevation
313 ft
Coordinates
49° 32' 2" N , 0° 5' 17" E
Metar
Observation
LFOH 021130Z AUTO 05007KT CAVOK 07/04 Q1022 NOSIG
Station
La Heve
Date/Time
2022-12-02 11:30:00
Wind direction
50°
Wind speed
07 kts
Lowest cloud amount
clouds and visibility OK
Temperature
7°C
Dew point
4°C
Humidity
81%
QNH
1022 hPa
Weather condition
n/a

Runways

Designator Length Width Surface Rops
5/23 2300 40 ASP No/No

Airport map

Aerial View

SKYbrary Partners:

Safety knowledge contributed by: